LDZDLDDU

Guest
Details From LDZD - ZADAR
To LDDU - DUBROVNIK
Flight Number -
Tags generated
Created
Modified
Stats Distance 158 nm / 292 km
Max Altitude 19,600 ft / 5,974 m
Waypoints 4
Social Downloads 1
Likes 0
Share VATSIM

Download

Looking for another format? Having issues loading an existing format? Contact us
Advertisement - Login to hide

Notes

Basic altitude profile: - Ascent Rate: 2500ft/min - Ascent Speed: 250kts - Cruise Altitude: 35000ft - Cruise Speed: 420kts - Descent Rate: 1500ft/min - Descent Speed: 250kts Options: - Use NATs: yes - Use PACOTS: yes - Use low airways: yes - Use high airways: yes

Route

LDZD ZDA L607 SPL LDDU

ID Type Via Altitude Latitude Longitude Leg Dist Tot Dist Heading (true) Name
O LDZD APT - 0 ft / 0 m 44.09723˚ 15.34798˚ - 0 nm - ZADAR
ZDA VOR - 200 ft / 61 m 44.09532˚ 15.36421˚ 0 nm 0 nm 99° / 99° ZADAR VOR-DME
SPL VOR L607 (AWY-LO) 19,600 ft / 5,974 m 43.49658˚ 16.30472˚ 54 nm 55 nm 131° / 132° SPLIT VOR-DME
O LDDU APT - 0 ft / 0 m 42.56284˚ 18.26450˚ 102 nm 157 nm 122° / 124° DUBROVNIK

Altitude Profile

Advertisement - Login to hide

LDZD

Details ICAO LDZD (ZAD)
Name ZADAR
Region Croatia
Timezone Europe/Zagreb (UTC+1.0)
Stats Elevation 289 ft / 88 m (AMSL)
Location 44.097225° 15.347978°
Runways 2
Magnetic Variation 3.702° E

METAR

LDZD 182030Z 06006KT 030V100 CAVOK 01/M07 Q1025 NOSIG

Decode

TAF

TAF LDZD 181725Z 1818/1918 05005KT 9999 FEW070 TX06/1913Z TNM05/1906Z TEMPO 1818/1911 05008KT

Decode

Departure Runways

ID Width Length Bearing (true) Bearing (mag) Surface Threshold Offset Overrun Length
04 147 ft / 45 m 6,519 ft / 1,987 m 41.52° 37.82° Asphalt 0 ft / 0 m 0 ft / 0 m
14 147 ft / 45 m 8,159 ft / 2,487 m 135.79° 132.09° Asphalt 0 ft / 0 m 0 ft / 0 m
22 147 ft / 45 m 6,519 ft / 1,987 m 221.53° 217.83° Asphalt 0 ft / 0 m 0 ft / 0 m
32 147 ft / 45 m 8,159 ft / 2,487 m 315.81° 312.11° Asphalt 0 ft / 0 m 0 ft / 0 m

LDDU

Details ICAO LDDU (DBV)
Name DUBROVNIK
Region Croatia
Timezone Europe/Zagreb (UTC+1.0)
Stats Elevation 527 ft / 161 m (AMSL)
Location 42.562840° 18.264499°
Runways 1
Magnetic Variation 4.101° E

METAR

LDDU 182030Z 03025KT 360V060 CAVOK 04/M08 Q1020 TEMPO 02022G32KT

Decode

TAF

TAF TAF LDDU 181725Z 1818/1918 02020KT 9999 FEW070 TX06/1913Z TN03/1906Z TEMPO 1818/1906 02022G34KT BECMG 1907/1909 02010KT TEMPO 1909/1914 VRB09KT

Decode

Destination Runways

ID Width Length Bearing (true) Bearing (mag) Surface Threshold Offset Overrun Length
12 148 ft / 45 m 10,803 ft / 3,293 m 118.30° 114.20° Asphalt 488 ft / 149 m 100 ft / 30 m
30 148 ft / 45 m 10,803 ft / 3,293 m 298.33° 294.23° Asphalt 0 ft / 0 m 100 ft / 30 m

Approach Navaids

Runway Type Ident Frequency Range Bearing (true) Bearing (mag) Slope Elevation
12 Localiser IDU 110.10 MHz 25 nm / 46 km 118.21° 114.11° - 469 ft / 143 m (AMSL)
12 Glidescope IDU 110.10 MHz 25 nm / 46 km 118.21° 114.11° 3.00° 502 ft / 153 m (AMSL)